Terminal Aerodrome Forecast
Issued by NWS Bismarck, ND

Home | Current Version | Previous Version | Graphics & Text | Print | Product List | Glossary On
Versions: 1 2 3 4 5 6 7 8 9 10 11 12 13 14 15 16 17 18
000
FTUS43 KBIS 311100
TAFBIS
TAF
KBIS 311131Z 3112/0112 32006KT P6SM BKN016 OVC050
     FM311600 31009KT P6SM BKN035
     FM010000 29006KT P6SM SCT150=

USA.gov is the U.S. government's official web portal to all federal, state and local government web resources and services.